Chester, Vermont
Current Conditions -  °F | °C
As of 12:54 AM on Friday 31 Oct 2014 (Local Time) from KVSF Reporting Station
Overcast Overcast  
Wind Chill: 42°   Ceiling: 4600
Heat Index: 42°   Visibility: 10mi
Dew Point: 37°   Wind: 0mph
Humidity: 82%   Direction: NA
Pressure: 30.02"   Gusts: NA
Location:  43.26°N, 72.6°W
Report Text: KVSF 310454Z AUTO 00000KT 10SM SCT032 OVC046 06/03 A3002 RMK AO2 SLP168 T00560028 401280017
Loading
Personal Weather Stations






























Interactive Weather Map
Tropical Storm Tracking
New forecast layout! Learn more

10-Day Weather Forecast

Advertisements
Track Severe Weather on mobile